Forside
METAR-TAF:

METAR-TAF

Lufthavne :

Vladivostok Internationale Lufthavn

Vladivostok, Rusland

Breddekreds: 43-07N, længdekreds: 131-56E, højde: 184 m

Aktuelle vejr

Denne rapport blev lavet for 16 minutter siden, kl. 00:30 UTC
Vind 4 kt fra øst
Temperatur 3°C
Fugtighed 81%
Tryk 1015 hPa
Sigt: 9000 m

METAR: UHWW 240030Z 08002MPS 9000 NSC 03/00 Q1015 R25L/0///70 NOSIG RMK QFE760

Tid: 10:46 (00:46 UTC)

Vejrudsigter

Denne rapport blev lavet for 1 time og 46 minutter siden, kl. 23:00 UTC
Foreløbig gælder fra 24 på 00 UTC til 24 på 24 UTC
Vind 6 kt fra sydvest
Sigt: 5000 m
dis
ændring
fra 24 på 01 UTC til 24 på 03 UTC
Sigt 10 km eller mere
Spredte skyer i en højde af 3000 ft
ændring
fra 24 på 08 UTC til 24 på 10 UTC
Vind 6 kt fra nordnordvest

TAF: UHWW 232300Z 2400/2424 22003MPS 5000 BR NSC BECMG 2401/2403 9999 NSW SCT030 BECMG 2408/2410 34003MPS

Vejrobservationer og prognoser fra mere end 4000 lufthavne (METAR og TAF).

De gule og røde prikker repræsenterer de meteorologiske stationer.

Flyt musen over at se navnet på stationen.

Så klik over at se vejr observationer og prognoser.

At skifte det kort: Klik på de grønne knapper med et sort kors for at zoome ind; på den grønne knap med en bindestreg for at zoome ud; eller på de grønne pile for tilstødende kort.


METAR-TAF: